sensor_id;sensor_type;location;lat;lon;timestamp;temperature;humidity
32787;DHT22;19139;49.372;8.580;2022-08-19T00:02:05;28.30;86.60
32787;DHT22;19139;49.372;8.580;2022-08-19T00:04:34;28.30;86.60
32787;DHT22;19139;49.372;8.580;2022-08-19T00:07:07;28.30;86.70
32787;DHT22;19139;49.372;8.580;2022-08-19T00:09:34;28.30;86.70
32787;DHT22;19139;49.372;8.580;2022-08-19T00:12:01;28.30;86.70
32787;DHT22;19139;49.372;8.580;2022-08-19T00:14:28;28.30;86.70
32787;DHT22;19139;49.372;8.580;2022-08-19T00:16:58;28.30;86.70
32787;DHT22;19139;49.372;8.580;2022-08-19T00:19:24;28.30;86.70
32787;DHT22;19139;49.372;8.580;2022-08-19T00:21:56;28.30;86.70
32787;DHT22;19139;49.372;8.580;2022-08-19T00:24:23;28.30;86.80
32787;DHT22;19139;49.372;8.580;2022-08-19T00:26:56;28.30;86.70
32787;DHT22;19139;49.372;8.580;2022-08-19T00:29:43;28.30;86.80
32787;DHT22;19139;49.372;8.580;2022-08-19T00:32:11;28.30;86.80
32787;DHT22;19139;49.372;8.580;2022-08-19T00:34:39;28.30;86.80
32787;DHT22;19139;49.372;8.580;2022-08-19T00:37:05;28.30;86.80
32787;DHT22;19139;49.372;8.580;2022-08-19T00:39:38;28.30;86.80
32787;DHT22;19139;49.372;8.580;2022-08-19T00:42:05;28.30;86.80
32787;DHT22;19139;49.372;8.580;2022-08-19T00:44:37;28.30;86.80
32787;DHT22;19139;49.372;8.580;2022-08-19T00:47:04;28.30;86.80
32787;DHT22;19139;49.372;8.580;2022-08-19T00:49:40;28.30;86.80
32787;DHT22;19139;49.372;8.580;2022-08-19T00:52:14;28.30;87.00
32787;DHT22;19139;49.372;8.580;2022-08-19T00:54:47;28.30;86.90
32787;DHT22;19139;49.372;8.580;2022-08-19T00:57:22;28.30;87.00
32787;DHT22;19139;49.372;8.580;2022-08-19T00:59:56;28.20;86.90
32787;DHT22;19139;49.372;8.580;2022-08-19T01:02:29;28.30;86.90
32787;DHT22;19139;49.372;8.580;2022-08-19T01:04:56;28.30;87.00
32787;DHT22;19139;49.372;8.580;2022-08-19T01:07:23;28.30;87.40
32787;DHT22;19139;49.372;8.580;2022-08-19T01:09:50;28.30;87.70
32787;DHT22;19139;49.372;8.580;2022-08-19T01:12:18;28.30;88.10
32787;DHT22;19139;49.372;8.580;2022-08-19T01:14:46;28.30;88.10
32787;DHT22;19139;49.372;8.580;2022-08-19T01:17:15;28.30;88.10
32787;DHT22;19139;49.372;8.580;2022-08-19T01:19:43;28.30;88.10
32787;DHT22;19139;49.372;8.580;2022-08-19T01:22:26;28.30;88.10
32787;DHT22;19139;49.372;8.580;2022-08-19T01:24:59;28.20;87.90
32787;DHT22;19139;49.372;8.580;2022-08-19T01:27:39;28.20;87.70
32787;DHT22;19139;49.372;8.580;2022-08-19T01:30:13;28.20;87.70
32787;DHT22;19139;49.372;8.580;2022-08-19T01:32:45;28.20;87.90
32787;DHT22;19139;49.372;8.580;2022-08-19T01:35:13;28.30;87.90
32787;DHT22;19139;49.372;8.580;2022-08-19T01:37:56;28.20;87.80
32787;DHT22;19139;49.372;8.580;2022-08-19T01:40:26;28.20;87.80
32787;DHT22;19139;49.372;8.580;2022-08-19T01:42:53;28.20;87.70
32787;DHT22;19139;49.372;8.580;2022-08-19T01:45:27;28.20;87.60
32787;DHT22;19139;49.372;8.580;2022-08-19T01:47:54;28.20;87.50
32787;DHT22;19139;49.372;8.580;2022-08-19T01:50:29;28.30;87.50
32787;DHT22;19139;49.372;8.580;2022-08-19T01:52:56;28.20;87.40
32787;DHT22;19139;49.372;8.580;2022-08-19T01:55:34;28.20;87.40
32787;DHT22;19139;49.372;8.580;2022-08-19T01:58:10;28.30;87.40
32787;DHT22;19139;49.372;8.580;2022-08-19T02:00:43;28.30;87.40
32787;DHT22;19139;49.372;8.580;2022-08-19T02:03:14;28.20;87.30
32787;DHT22;19139;49.372;8.580;2022-08-19T02:05:47;28.20;87.40
32787;DHT22;19139;49.372;8.580;2022-08-19T02:08:13;28.20;87.90
32787;DHT22;19139;49.372;8.580;2022-08-19T02:10:42;28.20;88.50
32787;DHT22;19139;49.372;8.580;2022-08-19T02:13:11;28.20;88.50
32787;DHT22;19139;49.372;8.580;2022-08-19T02:15:38;28.20;88.50
32787;DHT22;19139;49.372;8.580;2022-08-19T02:18:06;28.20;88.50
32787;DHT22;19139;49.372;8.580;2022-08-19T02:20:35;28.20;88.30
32787;DHT22;19139;49.372;8.580;2022-08-19T02:23:02;28.20;88.30
32787;DHT22;19139;49.372;8.580;2022-08-19T02:25:29;28.20;88.10
32787;DHT22;19139;49.372;8.580;2022-08-19T02:27:56;28.20;88.00
32787;DHT22;19139;49.372;8.580;2022-08-19T02:30:23;28.20;87.90
32787;DHT22;19139;49.372;8.580;2022-08-19T02:32:51;28.20;87.70
32787;DHT22;19139;49.372;8.580;2022-08-19T02:35:18;28.20;87.60
32787;DHT22;19139;49.372;8.580;2022-08-19T02:37:45;28.20;87.60
32787;DHT22;19139;49.372;8.580;2022-08-19T02:40:31;28.20;87.50
32787;DHT22;19139;49.372;8.580;2022-08-19T02:43:04;28.20;87.40
32787;DHT22;19139;49.372;8.580;2022-08-19T02:45:34;28.20;87.50
32787;DHT22;19139;49.372;8.580;2022-08-19T02:48:05;28.20;87.40
32787;DHT22;19139;49.372;8.580;2022-08-19T02:50:48;28.20;87.40
32787;DHT22;19139;49.372;8.580;2022-08-19T02:53:19;28.20;87.30
32787;DHT22;19139;49.372;8.580;2022-08-19T02:55:46;28.20;87.20
32787;DHT22;19139;49.372;8.580;2022-08-19T02:58:14;28.20;87.20
32787;DHT22;19139;49.372;8.580;2022-08-19T03:00:52;28.20;87.20
32787;DHT22;19139;49.372;8.580;2022-08-19T03:03:19;28.20;87.30
32787;DHT22;19139;49.372;8.580;2022-08-19T03:05:47;28.20;87.30
32787;DHT22;19139;49.372;8.580;2022-08-19T03:08:23;28.20;87.30
32787;DHT22;19139;49.372;8.580;2022-08-19T03:10:50;28.20;87.30
32787;DHT22;19139;49.372;8.580;2022-08-19T03:13:18;28.20;87.30
32787;DHT22;19139;49.372;8.580;2022-08-19T03:15:46;28.20;87.30
32787;DHT22;19139;49.372;8.580;2022-08-19T03:18:14;28.20;87.40
32787;DHT22;19139;49.372;8.580;2022-08-19T03:20:48;28.20;87.20
32787;DHT22;19139;49.372;8.580;2022-08-19T03:23:15;28.10;87.10
32787;DHT22;19139;49.372;8.580;2022-08-19T03:25:45;28.10;87.20
32787;DHT22;19139;49.372;8.580;2022-08-19T03:28:23;28.10;87.20
32787;DHT22;19139;49.372;8.580;2022-08-19T03:31:02;28.20;87.20
32787;DHT22;19139;49.372;8.580;2022-08-19T03:33:50;28.10;87.10
32787;DHT22;19139;49.372;8.580;2022-08-19T03:36:23;28.20;87.20
32787;DHT22;19139;49.372;8.580;2022-08-19T03:38:53;28.10;87.20
32787;DHT22;19139;49.372;8.580;2022-08-19T03:41:28;28.10;87.10
32787;DHT22;19139;49.372;8.580;2022-08-19T03:44:11;28.10;87.10
32787;DHT22;19139;49.372;8.580;2022-08-19T03:46:44;28.20;87.20
32787;DHT22;19139;49.372;8.580;2022-08-19T03:49:11;28.10;87.10
32787;DHT22;19139;49.372;8.580;2022-08-19T03:51:41;28.10;87.10
32787;DHT22;19139;49.372;8.580;2022-08-19T03:54:11;28.10;87.10
32787;DHT22;19139;49.372;8.580;2022-08-19T03:56:45;28.10;87.00
32787;DHT22;19139;49.372;8.580;2022-08-19T03:59:17;28.10;87.00
32787;DHT22;19139;49.372;8.580;2022-08-19T04:01:43;28.10;87.10
32787;DHT22;19139;49.372;8.580;2022-08-19T04:04:10;28.10;87.10
32787;DHT22;19139;49.372;8.580;2022-08-19T04:06:43;28.10;87.00
32787;DHT22;19139;49.372;8.580;2022-08-19T04:09:10;28.10;87.00
32787;DHT22;19139;49.372;8.580;2022-08-19T04:11:48;28.10;87.00
32787;DHT22;19139;49.372;8.580;2022-08-19T04:14:18;28.10;87.00
32787;DHT22;19139;49.372;8.580;2022-08-19T04:16:47;28.10;87.00
32787;DHT22;19139;49.372;8.580;2022-08-19T04:19:15;28.10;87.00
32787;DHT22;19139;49.372;8.580;2022-08-19T04:21:48;28.10;87.00
32787;DHT22;19139;49.372;8.580;2022-08-19T04:24:21;28.10;87.00
32787;DHT22;19139;49.372;8.580;2022-08-19T04:26:53;28.10;87.00
32787;DHT22;19139;49.372;8.580;2022-08-19T04:29:25;28.10;87.00
32787;DHT22;19139;49.372;8.580;2022-08-19T04:31:58;28.10;87.10
32787;DHT22;19139;49.372;8.580;2022-08-19T04:34:30;28.10;87.30
32787;DHT22;19139;49.372;8.580;2022-08-19T04:37:06;28.10;87.70
32787;DHT22;19139;49.372;8.580;2022-08-19T04:39:38;28.10;87.90
32787;DHT22;19139;49.372;8.580;2022-08-19T04:42:27;28.10;87.90
32787;DHT22;19139;49.372;8.580;2022-08-19T04:45:13;28.10;87.70
32787;DHT22;19139;49.372;8.580;2022-08-19T04:47:43;28.10;87.50
32787;DHT22;19139;49.372;8.580;2022-08-19T04:50:23;28.10;87.50
32787;DHT22;19139;49.372;8.580;2022-08-19T04:52:50;28.10;87.50
32787;DHT22;19139;49.372;8.580;2022-08-19T04:55:17;28.10;87.30
32787;DHT22;19139;49.372;8.580;2022-08-19T04:57:44;28.10;87.40
32787;DHT22;19139;49.372;8.580;2022-08-19T05:00:11;28.10;87.30
32787;DHT22;19139;49.372;8.580;2022-08-19T05:02:38;28.10;87.30
32787;DHT22;19139;49.372;8.580;2022-08-19T05:05:10;28.10;87.30
32787;DHT22;19139;49.372;8.580;2022-08-19T05:07:42;28.10;87.20
32787;DHT22;19139;49.372;8.580;2022-08-19T05:10:13;28.10;87.20
32787;DHT22;19139;49.372;8.580;2022-08-19T05:12:40;28.10;87.10
32787;DHT22;19139;49.372;8.580;2022-08-19T05:15:07;28.10;87.10
32787;DHT22;19139;49.372;8.580;2022-08-19T05:17:39;28.10;87.10
32787;DHT22;19139;49.372;8.580;2022-08-19T05:20:26;28.10;87.10
32787;DHT22;19139;49.372;8.580;2022-08-19T05:23:11;28.10;87.10
32787;DHT22;19139;49.372;8.580;2022-08-19T05:25:47;28.10;87.10
32787;DHT22;19139;49.372;8.580;2022-08-19T05:28:14;28.10;87.10
32787;DHT22;19139;49.372;8.580;2022-08-19T05:30:40;28.10;87.10
32787;DHT22;19139;49.372;8.580;2022-08-19T05:33:13;28.10;87.10
32787;DHT22;19139;49.372;8.580;2022-08-19T05:35:39;28.10;87.10
32787;DHT22;19139;49.372;8.580;2022-08-19T05:38:12;28.10;87.10
32787;DHT22;19139;49.372;8.580;2022-08-19T05:40:43;28.10;87.10
32787;DHT22;19139;49.372;8.580;2022-08-19T05:43:18;28.10;87.10
32787;DHT22;19139;49.372;8.580;2022-08-19T05:45:49;28.10;87.00
32787;DHT22;19139;49.372;8.580;2022-08-19T05:48:21;28.00;87.00
32787;DHT22;19139;49.372;8.580;2022-08-19T05:50:53;28.00;87.10
32787;DHT22;19139;49.372;8.580;2022-08-19T05:53:25;28.10;87.10
32787;DHT22;19139;49.372;8.580;2022-08-19T05:55:51;28.00;87.00
32787;DHT22;19139;49.372;8.580;2022-08-19T05:58:23;28.10;87.00
32787;DHT22;19139;49.372;8.580;2022-08-19T06:00:53;28.00;87.00
32787;DHT22;19139;49.372;8.580;2022-08-19T06:03:25;28.10;87.00
32787;DHT22;19139;49.372;8.580;2022-08-19T06:05:52;28.00;86.90
32787;DHT22;19139;49.372;8.580;2022-08-19T06:08:19;28.00;86.90
32787;DHT22;19139;49.372;8.580;2022-08-19T06:11:15;28.00;86.90
32787;DHT22;19139;49.372;8.580;2022-08-19T06:13:44;28.10;87.00
32787;DHT22;19139;49.372;8.580;2022-08-19T06:16:22;28.00;86.90
32787;DHT22;19139;49.372;8.580;2022-08-19T06:18:55;28.00;86.90
32787;DHT22;19139;49.372;8.580;2022-08-19T06:21:29;28.10;86.90
32787;DHT22;19139;49.372;8.580;2022-08-19T06:23:57;28.10;86.90
32787;DHT22;19139;49.372;8.580;2022-08-19T06:26:24;28.00;86.90
32787;DHT22;19139;49.372;8.580;2022-08-19T06:28:52;28.00;86.80
32787;DHT22;19139;49.372;8.580;2022-08-19T06:31:22;28.10;86.90
32787;DHT22;19139;49.372;8.580;2022-08-19T06:33:49;28.10;86.90
32787;DHT22;19139;49.372;8.580;2022-08-19T06:36:25;28.10;86.90
32787;DHT22;19139;49.372;8.580;2022-08-19T06:38:58;28.10;86.90
32787;DHT22;19139;49.372;8.580;2022-08-19T06:41:26;28.10;86.90
32787;DHT22;19139;49.372;8.580;2022-08-19T06:43:54;28.00;86.90
32787;DHT22;19139;49.372;8.580;2022-08-19T06:46:22;28.10;86.90
32787;DHT22;19139;49.372;8.580;2022-08-19T06:48:54;28.10;86.90
32787;DHT22;19139;49.372;8.580;2022-08-19T06:51:21;28.10;86.90
32787;DHT22;19139;49.372;8.580;2022-08-19T06:53:54;28.10;86.90
32787;DHT22;19139;49.372;8.580;2022-08-19T06:56:27;28.00;86.80
32787;DHT22;19139;49.372;8.580;2022-08-19T06:59:02;28.10;86.90
32787;DHT22;19139;49.372;8.580;2022-08-19T07:01:28;28.10;86.90
32787;DHT22;19139;49.372;8.580;2022-08-19T07:03:55;28.10;86.90
32787;DHT22;19139;49.372;8.580;2022-08-19T07:06:23;28.00;86.90
32787;DHT22;19139;49.372;8.580;2022-08-19T07:09:13;28.10;86.90
32787;DHT22;19139;49.372;8.580;2022-08-19T07:11:46;28.10;86.90
32787;DHT22;19139;49.372;8.580;2022-08-19T07:14:13;28.10;86.80
32787;DHT22;19139;49.372;8.580;2022-08-19T07:16:49;28.10;86.90
32787;DHT22;19139;49.372;8.580;2022-08-19T07:19:17;28.10;86.90
32787;DHT22;19139;49.372;8.580;2022-08-19T07:21:46;28.10;86.80
32787;DHT22;19139;49.372;8.580;2022-08-19T07:24:19;28.10;86.80
32787;DHT22;19139;49.372;8.580;2022-08-19T07:26:53;28.10;86.80
32787;DHT22;19139;49.372;8.580;2022-08-19T07:29:26;28.10;87.20
32787;DHT22;19139;49.372;8.580;2022-08-19T07:31:55;28.10;87.30
32787;DHT22;19139;49.372;8.580;2022-08-19T07:34:27;28.10;87.30
32787;DHT22;19139;49.372;8.580;2022-08-19T07:36:55;28.10;87.20
32787;DHT22;19139;49.372;8.580;2022-08-19T07:39:28;28.10;87.10
32787;DHT22;19139;49.372;8.580;2022-08-19T07:41:57;28.10;87.00
32787;DHT22;19139;49.372;8.580;2022-08-19T07:44:24;28.10;86.90
32787;DHT22;19139;49.372;8.580;2022-08-19T07:46:54;28.10;86.70
32787;DHT22;19139;49.372;8.580;2022-08-19T07:49:22;28.10;86.90
32787;DHT22;19139;49.372;8.580;2022-08-19T07:51:52;28.10;86.90
32787;DHT22;19139;49.372;8.580;2022-08-19T07:54:21;28.20;87.10
32787;DHT22;19139;49.372;8.580;2022-08-19T07:56:48;28.10;86.90
32787;DHT22;19139;49.372;8.580;2022-08-19T07:59:19;28.10;87.00
32787;DHT22;19139;49.372;8.580;2022-08-19T08:01:47;28.10;87.20
32787;DHT22;19139;49.372;8.580;2022-08-19T08:04:14;28.10;87.10
32787;DHT22;19139;49.372;8.580;2022-08-19T08:06:59;28.10;87.10
32787;DHT22;19139;49.372;8.580;2022-08-19T08:09:45;28.10;87.10
32787;DHT22;19139;49.372;8.580;2022-08-19T08:12:19;28.10;87.10
32787;DHT22;19139;49.372;8.580;2022-08-19T08:15:03;28.10;87.20
32787;DHT22;19139;49.372;8.580;2022-08-19T08:17:34;28.10;87.10
32787;DHT22;19139;49.372;8.580;2022-08-19T08:20:15;28.10;87.20
32787;DHT22;19139;49.372;8.580;2022-08-19T08:22:46;28.10;87.30
32787;DHT22;19139;49.372;8.580;2022-08-19T08:25:32;28.10;87.20
32787;DHT22;19139;49.372;8.580;2022-08-19T08:28:01;28.10;87.00
32787;DHT22;19139;49.372;8.580;2022-08-19T08:30:29;28.10;86.80
32787;DHT22;19139;49.372;8.580;2022-08-19T08:32:59;28.10;86.60
32787;DHT22;19139;49.372;8.580;2022-08-19T08:35:28;28.10;86.40
32787;DHT22;19139;49.372;8.580;2022-08-19T08:38:00;28.10;86.30
32787;DHT22;19139;49.372;8.580;2022-08-19T08:43:34;28.10;86.20
32787;DHT22;19139;49.372;8.580;2022-08-19T08:46:07;28.10;86.10
32787;DHT22;19139;49.372;8.580;2022-08-19T08:48:46;28.10;86.10
32787;DHT22;19139;49.372;8.580;2022-08-19T08:51:46;28.10;86.10
32787;DHT22;19139;49.372;8.580;2022-08-19T08:54:30;28.10;86.10
32787;DHT22;19139;49.372;8.580;2022-08-19T08:57:05;28.10;86.10
32787;DHT22;19139;49.372;8.580;2022-08-19T08:59:40;28.10;86.10
32787;DHT22;19139;49.372;8.580;2022-08-19T09:02:12;28.20;86.20
32787;DHT22;19139;49.372;8.580;2022-08-19T09:04:39;28.10;86.10
32787;DHT22;19139;49.372;8.580;2022-08-19T09:08:00;28.10;86.10
32787;DHT22;19139;49.372;8.580;2022-08-19T09:10:38;28.20;86.20
32787;DHT22;19139;49.372;8.580;2022-08-19T09:13:42;28.20;86.10
32787;DHT22;19139;49.372;8.580;2022-08-19T09:16:17;28.20;86.00
32787;DHT22;19139;49.372;8.580;2022-08-19T09:18:51;28.20;86.10
32787;DHT22;19139;49.372;8.580;2022-08-19T09:21:22;28.20;85.90
32787;DHT22;19139;49.372;8.580;2022-08-19T09:23:58;28.20;86.00
32787;DHT22;19139;49.372;8.580;2022-08-19T09:26:26;28.20;85.80
32787;DHT22;19139;49.372;8.580;2022-08-19T09:29:13;28.20;86.00
32787;DHT22;19139;49.372;8.580;2022-08-19T09:31:40;28.20;86.10
32787;DHT22;19139;49.372;8.580;2022-08-19T09:34:06;28.20;86.10
32787;DHT22;19139;49.372;8.580;2022-08-19T09:36:47;28.20;86.10
32787;DHT22;19139;49.372;8.580;2022-08-19T09:39:16;28.20;86.00
32787;DHT22;19139;49.372;8.580;2022-08-19T09:41:43;28.20;85.90
32787;DHT22;19139;49.372;8.580;2022-08-19T09:44:13;28.20;86.00
32787;DHT22;19139;49.372;8.580;2022-08-19T09:46:39;28.20;85.90
32787;DHT22;19139;49.372;8.580;2022-08-19T09:49:11;28.20;86.00
32787;DHT22;19139;49.372;8.580;2022-08-19T09:51:42;28.20;86.00
32787;DHT22;19139;49.372;8.580;2022-08-19T09:54:16;28.20;86.00
32787;DHT22;19139;49.372;8.580;2022-08-19T09:56:48;28.20;85.90
32787;DHT22;19139;49.372;8.580;2022-08-19T09:59:21;28.20;86.00
32787;DHT22;19139;49.372;8.580;2022-08-19T10:01:52;28.20;85.90
32787;DHT22;19139;49.372;8.580;2022-08-19T10:04:20;28.30;85.90
32787;DHT22;19139;49.372;8.580;2022-08-19T10:06:49;28.30;85.90
32787;DHT22;19139;49.372;8.580;2022-08-19T10:09:19;28.30;85.80
32787;DHT22;19139;49.372;8.580;2022-08-19T10:12:01;28.30;85.70
32787;DHT22;19139;49.372;8.580;2022-08-19T10:14:28;28.30;85.60
32787;DHT22;19139;49.372;8.580;2022-08-19T10:16:55;28.30;85.60
32787;DHT22;19139;49.372;8.580;2022-08-19T10:19:24;28.30;85.50
32787;DHT22;19139;49.372;8.580;2022-08-19T10:21:53;28.40;85.70
32787;DHT22;19139;49.372;8.580;2022-08-19T10:24:25;28.40;85.60
32787;DHT22;19139;49.372;8.580;2022-08-19T10:26:59;28.40;85.70
32787;DHT22;19139;49.372;8.580;2022-08-19T10:29:32;28.30;85.70
32787;DHT22;19139;49.372;8.580;2022-08-19T10:32:01;28.30;85.70
32787;DHT22;19139;49.372;8.580;2022-08-19T10:34:29;28.30;85.60
32787;DHT22;19139;49.372;8.580;2022-08-19T10:36:57;28.30;85.60
32787;DHT22;19139;49.372;8.580;2022-08-19T10:39:27;28.40;85.70
32787;DHT22;19139;49.372;8.580;2022-08-19T10:41:57;28.40;85.60
32787;DHT22;19139;49.372;8.580;2022-08-19T10:44:24;28.40;85.70
32787;DHT22;19139;49.372;8.580;2022-08-19T10:46:57;28.40;85.70
32787;DHT22;19139;49.372;8.580;2022-08-19T10:49:25;28.40;85.70
32787;DHT22;19139;49.372;8.580;2022-08-19T10:51:54;28.40;85.70
32787;DHT22;19139;49.372;8.580;2022-08-19T10:54:44;28.40;85.90
32787;DHT22;19139;49.372;8.580;2022-08-19T10:57:35;28.40;85.80
32787;DHT22;19139;49.372;8.580;2022-08-19T11:00:07;28.40;85.90
32787;DHT22;19139;49.372;8.580;2022-08-19T11:02:33;28.40;85.80
32787;DHT22;19139;49.372;8.580;2022-08-19T11:05:00;28.40;85.70
32787;DHT22;19139;49.372;8.580;2022-08-19T11:07:32;28.40;85.70
32787;DHT22;19139;49.372;8.580;2022-08-19T11:10:04;28.40;85.70
32787;DHT22;19139;49.372;8.580;2022-08-19T11:12:37;28.40;85.70
32787;DHT22;19139;49.372;8.580;2022-08-19T11:15:09;28.40;85.80
32787;DHT22;19139;49.372;8.580;2022-08-19T11:17:41;28.40;85.90
32787;DHT22;19139;49.372;8.580;2022-08-19T11:20:15;28.40;85.90
32787;DHT22;19139;49.372;8.580;2022-08-19T11:22:46;28.40;85.80
32787;DHT22;19139;49.372;8.580;2022-08-19T11:25:18;28.40;85.70
32787;DHT22;19139;49.372;8.580;2022-08-19T11:27:44;28.40;85.90
32787;DHT22;19139;49.372;8.580;2022-08-19T11:30:17;28.40;85.90
32787;DHT22;19139;49.372;8.580;2022-08-19T11:32:44;28.40;85.90
32787;DHT22;19139;49.372;8.580;2022-08-19T11:35:16;28.40;85.90
32787;DHT22;19139;49.372;8.580;2022-08-19T11:37:47;28.50;85.90
32787;DHT22;19139;49.372;8.580;2022-08-19T11:40:14;28.40;85.80
32787;DHT22;19139;49.372;8.580;2022-08-19T11:42:46;28.40;85.80
32787;DHT22;19139;49.372;8.580;2022-08-19T11:45:28;28.40;85.80
32787;DHT22;19139;49.372;8.580;2022-08-19T11:47:55;28.40;85.70
32787;DHT22;19139;49.372;8.580;2022-08-19T11:50:27;28.40;85.70
32787;DHT22;19139;49.372;8.580;2022-08-19T11:52:56;28.40;85.80
32787;DHT22;19139;49.372;8.580;2022-08-19T11:55:27;28.40;85.70
32787;DHT22;19139;49.372;8.580;2022-08-19T11:57:54;28.40;85.80
32787;DHT22;19139;49.372;8.580;2022-08-19T12:00:25;28.50;85.80
32787;DHT22;19139;49.372;8.580;2022-08-19T12:02:57;28.40;85.60
32787;DHT22;19139;49.372;8.580;2022-08-19T12:05:24;28.50;85.70
32787;DHT22;19139;49.372;8.580;2022-08-19T12:07:55;28.40;85.50
32787;DHT22;19139;49.372;8.580;2022-08-19T12:10:27;28.50;85.50
32787;DHT22;19139;49.372;8.580;2022-08-19T12:12:54;28.50;85.70
32787;DHT22;19139;49.372;8.580;2022-08-19T12:15:26;28.40;85.50
32787;DHT22;19139;49.372;8.580;2022-08-19T12:18:02;28.40;85.50
32787;DHT22;19139;49.372;8.580;2022-08-19T12:20:29;28.50;85.60
32787;DHT22;19139;49.372;8.580;2022-08-19T12:22:55;28.50;85.40
32787;DHT22;19139;49.372;8.580;2022-08-19T12:25:27;28.50;85.10
32787;DHT22;19139;49.372;8.580;2022-08-19T12:27:54;28.50;85.20
32787;DHT22;19139;49.372;8.580;2022-08-19T12:30:24;28.50;85.30
32787;DHT22;19139;49.372;8.580;2022-08-19T12:32:51;28.50;85.30
32787;DHT22;19139;49.372;8.580;2022-08-19T12:35:18;28.50;85.20
32787;DHT22;19139;49.372;8.580;2022-08-19T12:37:48;28.50;85.10
32787;DHT22;19139;49.372;8.580;2022-08-19T12:40:23;28.50;85.20
32787;DHT22;19139;49.372;8.580;2022-08-19T12:42:54;28.50;85.10
32787;DHT22;19139;49.372;8.580;2022-08-19T12:45:26;28.50;85.20
32787;DHT22;19139;49.372;8.580;2022-08-19T12:47:58;28.50;85.90
32787;DHT22;19139;49.372;8.580;2022-08-19T12:50:25;28.50;85.00
32787;DHT22;19139;49.372;8.580;2022-08-19T12:52:52;28.50;85.00
32787;DHT22;19139;49.372;8.580;2022-08-19T12:55:18;28.50;84.90
32787;DHT22;19139;49.372;8.580;2022-08-19T12:57:45;28.50;84.90
32787;DHT22;19139;49.372;8.580;2022-08-19T13:00:15;28.50;85.00
32787;DHT22;19139;49.372;8.580;2022-08-19T13:02:49;28.50;84.80
32787;DHT22;19139;49.372;8.580;2022-08-19T13:05:20;28.50;84.70
32787;DHT22;19139;49.372;8.580;2022-08-19T13:07:50;28.50;84.60
32787;DHT22;19139;49.372;8.580;2022-08-19T13:10:18;28.50;84.60
32787;DHT22;19139;49.372;8.580;2022-08-19T13:12:48;28.60;84.60
32787;DHT22;19139;49.372;8.580;2022-08-19T13:15:21;28.60;84.40
32787;DHT22;19139;49.372;8.580;2022-08-19T13:17:52;28.60;84.30
32787;DHT22;19139;49.372;8.580;2022-08-19T13:20:20;28.60;84.20
32787;DHT22;19139;49.372;8.580;2022-08-19T13:22:47;28.60;84.10
32787;DHT22;19139;49.372;8.580;2022-08-19T13:25:19;28.60;84.00
32787;DHT22;19139;49.372;8.580;2022-08-19T13:27:48;28.60;84.00
32787;DHT22;19139;49.372;8.580;2022-08-19T13:30:17;28.60;83.90
32787;DHT22;19139;49.372;8.580;2022-08-19T13:33:08;28.70;84.00
32787;DHT22;19139;49.372;8.580;2022-08-19T13:35:49;28.60;83.80
32787;DHT22;19139;49.372;8.580;2022-08-19T13:38:20;28.60;83.70
32787;DHT22;19139;49.372;8.580;2022-08-19T13:40:48;28.60;83.60
32787;DHT22;19139;49.372;8.580;2022-08-19T13:43:17;28.70;83.70
32787;DHT22;19139;49.372;8.580;2022-08-19T13:45:53;28.60;83.50
32787;DHT22;19139;49.372;8.580;2022-08-19T13:48:26;28.70;83.50
32787;DHT22;19139;49.372;8.580;2022-08-19T13:50:58;28.70;83.40
32787;DHT22;19139;49.372;8.580;2022-08-19T13:53:29;28.70;83.40
32787;DHT22;19139;49.372;8.580;2022-08-19T13:55:56;28.70;83.40
32787;DHT22;19139;49.372;8.580;2022-08-19T13:58:28;28.70;83.30
32787;DHT22;19139;49.372;8.580;2022-08-19T14:00:55;28.70;83.30
32787;DHT22;19139;49.372;8.580;2022-08-19T14:03:27;28.70;83.30
32787;DHT22;19139;49.372;8.580;2022-08-19T14:05:59;28.70;83.10
32787;DHT22;19139;49.372;8.580;2022-08-19T14:08:26;28.70;83.10
32787;DHT22;19139;49.372;8.580;2022-08-19T14:10:59;28.70;83.00
32787;DHT22;19139;49.372;8.580;2022-08-19T14:13:32;28.80;82.90
32787;DHT22;19139;49.372;8.580;2022-08-19T14:16:10;28.70;82.70
32787;DHT22;19139;49.372;8.580;2022-08-19T14:18:37;28.70;83.00
32787;DHT22;19139;49.372;8.580;2022-08-19T14:21:16;28.70;82.90
32787;DHT22;19139;49.372;8.580;2022-08-19T14:23:48;28.80;82.70
32787;DHT22;19139;49.372;8.580;2022-08-19T14:26:21;28.80;82.50
32787;DHT22;19139;49.372;8.580;2022-08-19T14:28:48;28.80;82.40
32787;DHT22;19139;49.372;8.580;2022-08-19T14:31:17;28.80;82.40
32787;DHT22;19139;49.372;8.580;2022-08-19T14:33:50;28.80;82.50
32787;DHT22;19139;49.372;8.580;2022-08-19T14:36:18;28.80;82.50
32787;DHT22;19139;49.372;8.580;2022-08-19T14:38:46;28.80;82.40
32787;DHT22;19139;49.372;8.580;2022-08-19T14:41:22;28.80;82.40
32787;DHT22;19139;49.372;8.580;2022-08-19T14:43:52;28.80;82.30
32787;DHT22;19139;49.372;8.580;2022-08-19T14:46:21;28.80;82.30
32787;DHT22;19139;49.372;8.580;2022-08-19T14:48:49;28.80;82.00
32787;DHT22;19139;49.372;8.580;2022-08-19T14:51:19;28.80;82.00
32787;DHT22;19139;49.372;8.580;2022-08-19T14:53:46;28.80;81.80
32787;DHT22;19139;49.372;8.580;2022-08-19T14:56:22;28.80;82.50
32787;DHT22;19139;49.372;8.580;2022-08-19T14:58:49;28.80;82.60
32787;DHT22;19139;49.372;8.580;2022-08-19T15:01:21;28.80;81.90
32787;DHT22;19139;49.372;8.580;2022-08-19T15:03:49;28.80;81.80
32787;DHT22;19139;49.372;8.580;2022-08-19T15:06:19;28.80;81.90
32787;DHT22;19139;49.372;8.580;2022-08-19T15:08:46;28.80;81.80
32787;DHT22;19139;49.372;8.580;2022-08-19T15:11:20;28.80;81.50
32787;DHT22;19139;49.372;8.580;2022-08-19T15:13:47;28.70;81.30
32787;DHT22;19139;49.372;8.580;2022-08-19T15:16:19;28.80;81.60
32787;DHT22;19139;49.372;8.580;2022-08-19T15:18:49;28.80;81.50
32787;DHT22;19139;49.372;8.580;2022-08-19T15:21:16;28.80;81.60
32787;DHT22;19139;49.372;8.580;2022-08-19T15:23:49;28.80;81.30
32787;DHT22;19139;49.372;8.580;2022-08-19T15:26:18;28.80;81.20
32787;DHT22;19139;49.372;8.580;2022-08-19T15:28:45;28.80;81.10
32787;DHT22;19139;49.372;8.580;2022-08-19T15:31:15;28.80;81.10
32787;DHT22;19139;49.372;8.580;2022-08-19T15:33:56;28.80;81.20
32787;DHT22;19139;49.372;8.580;2022-08-19T15:36:28;28.80;81.40
32787;DHT22;19139;49.372;8.580;2022-08-19T15:39:00;28.80;81.40
32787;DHT22;19139;49.372;8.580;2022-08-19T15:41:29;28.80;81.20
32787;DHT22;19139;49.372;8.580;2022-08-19T15:44:08;28.70;80.80
32787;DHT22;19139;49.372;8.580;2022-08-19T15:46:37;28.80;80.70
32787;DHT22;19139;49.372;8.580;2022-08-19T15:49:05;28.80;80.60
32787;DHT22;19139;49.372;8.580;2022-08-19T15:51:34;28.70;80.80
32787;DHT22;19139;49.372;8.580;2022-08-19T15:54:04;28.80;80.10
32787;DHT22;19139;49.372;8.580;2022-08-19T15:56:31;28.80;80.20
32787;DHT22;19139;49.372;8.580;2022-08-19T15:59:24;28.70;80.30
32787;DHT22;19139;49.372;8.580;2022-08-19T16:02:14;28.70;80.40